sensor_id;sensor_type;location;lat;lon;timestamp;temperature;humidity
21861;DHT22;11095;48.066;8.540;2023-07-24T00:00:27;17.90;99.90
21861;DHT22;11095;48.066;8.540;2023-07-24T00:02:53;17.80;99.90
21861;DHT22;11095;48.066;8.540;2023-07-24T00:05:19;17.80;99.90
21861;DHT22;11095;48.066;8.540;2023-07-24T00:07:45;17.70;99.90
21861;DHT22;11095;48.066;8.540;2023-07-24T00:10:10;17.70;99.90
21861;DHT22;11095;48.066;8.540;2023-07-24T00:12:37;17.70;99.90
21861;DHT22;11095;48.066;8.540;2023-07-24T00:15:04;17.60;99.90
21861;DHT22;11095;48.066;8.540;2023-07-24T00:17:30;17.60;99.90
21861;DHT22;11095;48.066;8.540;2023-07-24T00:19:56;17.60;99.90
21861;DHT22;11095;48.066;8.540;2023-07-24T00:22:21;17.60;99.90
21861;DHT22;11095;48.066;8.540;2023-07-24T00:24:47;17.50;99.90
21861;DHT22;11095;48.066;8.540;2023-07-24T00:27:13;17.50;99.90
21861;DHT22;11095;48.066;8.540;2023-07-24T00:29:39;17.50;99.90
21861;DHT22;11095;48.066;8.540;2023-07-24T00:32:05;17.40;99.90
21861;DHT22;11095;48.066;8.540;2023-07-24T00:34:31;17.40;99.90
21861;DHT22;11095;48.066;8.540;2023-07-24T00:36:56;17.40;99.90
21861;DHT22;11095;48.066;8.540;2023-07-24T00:39:22;17.40;99.90
21861;DHT22;11095;48.066;8.540;2023-07-24T00:41:47;17.40;99.90
21861;DHT22;11095;48.066;8.540;2023-07-24T00:44:13;17.40;99.90
21861;DHT22;11095;48.066;8.540;2023-07-24T00:46:38;17.40;99.90
21861;DHT22;11095;48.066;8.540;2023-07-24T00:49:04;17.40;99.90
21861;DHT22;11095;48.066;8.540;2023-07-24T00:51:30;17.40;99.90
21861;DHT22;11095;48.066;8.540;2023-07-24T00:53:58;17.50;99.90
21861;DHT22;11095;48.066;8.540;2023-07-24T00:56:25;17.50;99.90
21861;DHT22;11095;48.066;8.540;2023-07-24T00:58:52;17.40;99.90
21861;DHT22;11095;48.066;8.540;2023-07-24T01:01:17;17.40;99.90
21861;DHT22;11095;48.066;8.540;2023-07-24T01:03:44;17.30;99.90
21861;DHT22;11095;48.066;8.540;2023-07-24T01:06:09;17.30;99.90
21861;DHT22;11095;48.066;8.540;2023-07-24T01:08:36;17.20;99.90
21861;DHT22;11095;48.066;8.540;2023-07-24T01:11:28;17.10;99.90
21861;DHT22;11095;48.066;8.540;2023-07-24T01:14:08;17.00;99.90
21861;DHT22;11095;48.066;8.540;2023-07-24T01:16:40;16.90;99.90
21861;DHT22;11095;48.066;8.540;2023-07-24T01:19:26;16.80;99.90
21861;DHT22;11095;48.066;8.540;2023-07-24T01:22:08;16.70;99.90
21861;DHT22;11095;48.066;8.540;2023-07-24T01:24:52;16.60;99.90
21861;DHT22;11095;48.066;8.540;2023-07-24T01:27:24;16.50;99.90
21861;DHT22;11095;48.066;8.540;2023-07-24T01:29:49;16.50;99.90
21861;DHT22;11095;48.066;8.540;2023-07-24T01:32:15;16.40;99.90
21861;DHT22;11095;48.066;8.540;2023-07-24T01:34:41;16.40;99.90
21861;DHT22;11095;48.066;8.540;2023-07-24T01:37:07;16.40;99.90
21861;DHT22;11095;48.066;8.540;2023-07-24T01:39:34;16.30;99.90
21861;DHT22;11095;48.066;8.540;2023-07-24T01:42:00;16.30;99.90
21861;DHT22;11095;48.066;8.540;2023-07-24T01:44:26;16.30;99.90
21861;DHT22;11095;48.066;8.540;2023-07-24T01:46:52;16.30;99.90
21861;DHT22;11095;48.066;8.540;2023-07-24T01:49:17;16.20;99.90
21861;DHT22;11095;48.066;8.540;2023-07-24T01:51:43;16.20;99.90
21861;DHT22;11095;48.066;8.540;2023-07-24T01:54:08;16.20;99.90
21861;DHT22;11095;48.066;8.540;2023-07-24T01:56:36;16.20;99.90
21861;DHT22;11095;48.066;8.540;2023-07-24T01:59:02;16.20;99.90
21861;DHT22;11095;48.066;8.540;2023-07-24T02:01:28;16.10;99.90
21861;DHT22;11095;48.066;8.540;2023-07-24T02:03:53;16.10;99.90
21861;DHT22;11095;48.066;8.540;2023-07-24T02:06:19;16.10;99.90
21861;DHT22;11095;48.066;8.540;2023-07-24T02:08:45;16.10;99.90
21861;DHT22;11095;48.066;8.540;2023-07-24T02:11:15;16.00;99.90
21861;DHT22;11095;48.066;8.540;2023-07-24T02:13:44;16.00;99.90
21861;DHT22;11095;48.066;8.540;2023-07-24T02:16:09;16.00;99.90
21861;DHT22;11095;48.066;8.540;2023-07-24T02:18:36;15.90;99.90
21861;DHT22;11095;48.066;8.540;2023-07-24T02:21:01;15.90;99.90
21861;DHT22;11095;48.066;8.540;2023-07-24T02:23:27;15.90;99.90
21861;DHT22;11095;48.066;8.540;2023-07-24T02:25:53;15.90;99.90
21861;DHT22;11095;48.066;8.540;2023-07-24T02:28:18;15.90;99.90
21861;DHT22;11095;48.066;8.540;2023-07-24T02:30:44;15.80;99.90
21861;DHT22;11095;48.066;8.540;2023-07-24T02:33:11;15.70;99.90
21861;DHT22;11095;48.066;8.540;2023-07-24T02:35:40;15.70;99.90
21861;DHT22;11095;48.066;8.540;2023-07-24T02:38:07;15.70;99.90
21861;DHT22;11095;48.066;8.540;2023-07-24T02:40:33;15.60;99.90
21861;DHT22;11095;48.066;8.540;2023-07-24T02:42:59;15.60;99.90
21861;DHT22;11095;48.066;8.540;2023-07-24T02:45:24;15.50;99.90
21861;DHT22;11095;48.066;8.540;2023-07-24T02:47:50;15.50;99.90
21861;DHT22;11095;48.066;8.540;2023-07-24T02:50:15;15.50;99.90
21861;DHT22;11095;48.066;8.540;2023-07-24T02:52:41;15.40;99.90
21861;DHT22;11095;48.066;8.540;2023-07-24T02:55:07;15.40;99.90
21861;DHT22;11095;48.066;8.540;2023-07-24T02:57:33;15.40;99.90
21861;DHT22;11095;48.066;8.540;2023-07-24T02:59:58;15.40;99.90
21861;DHT22;11095;48.066;8.540;2023-07-24T03:02:24;15.40;99.90
21861;DHT22;11095;48.066;8.540;2023-07-24T03:04:50;15.40;99.90
21861;DHT22;11095;48.066;8.540;2023-07-24T03:07:15;15.30;99.90
21861;DHT22;11095;48.066;8.540;2023-07-24T03:09:41;15.30;99.90
21861;DHT22;11095;48.066;8.540;2023-07-24T03:12:06;15.30;99.90
21861;DHT22;11095;48.066;8.540;2023-07-24T03:14:32;15.40;99.90
21861;DHT22;11095;48.066;8.540;2023-07-24T03:16:58;15.30;99.90
21861;DHT22;11095;48.066;8.540;2023-07-24T03:19:23;15.30;99.90
21861;DHT22;11095;48.066;8.540;2023-07-24T03:21:49;15.40;99.90
21861;DHT22;11095;48.066;8.540;2023-07-24T03:24:14;15.30;99.90
21861;DHT22;11095;48.066;8.540;2023-07-24T03:26:40;15.30;99.90
21861;DHT22;11095;48.066;8.540;2023-07-24T03:29:05;15.30;99.90
21861;DHT22;11095;48.066;8.540;2023-07-24T03:31:31;15.30;99.90
21861;DHT22;11095;48.066;8.540;2023-07-24T03:33:57;15.30;99.90
21861;DHT22;11095;48.066;8.540;2023-07-24T03:36:22;15.40;99.90
21861;DHT22;11095;48.066;8.540;2023-07-24T03:38:48;15.40;99.90
21861;DHT22;11095;48.066;8.540;2023-07-24T03:41:13;15.40;99.90
21861;DHT22;11095;48.066;8.540;2023-07-24T03:43:39;15.40;99.90
21861;DHT22;11095;48.066;8.540;2023-07-24T03:46:04;15.50;99.90
21861;DHT22;11095;48.066;8.540;2023-07-24T03:48:30;15.50;99.90
21861;DHT22;11095;48.066;8.540;2023-07-24T03:50:59;15.50;99.90
21861;DHT22;11095;48.066;8.540;2023-07-24T03:53:28;15.50;99.90
21861;DHT22;11095;48.066;8.540;2023-07-24T03:55:54;15.60;99.90
21861;DHT22;11095;48.066;8.540;2023-07-24T03:58:20;15.60;99.90
21861;DHT22;11095;48.066;8.540;2023-07-24T04:00:46;15.70;99.90
21861;DHT22;11095;48.066;8.540;2023-07-24T04:03:11;15.70;99.90
21861;DHT22;11095;48.066;8.540;2023-07-24T04:05:37;15.70;99.90
21861;DHT22;11095;48.066;8.540;2023-07-24T04:08:03;15.80;99.90
21861;DHT22;11095;48.066;8.540;2023-07-24T04:10:29;15.80;99.90
21861;DHT22;11095;48.066;8.540;2023-07-24T04:12:56;15.80;99.90
21861;DHT22;11095;48.066;8.540;2023-07-24T04:15:22;15.80;99.90
21861;DHT22;11095;48.066;8.540;2023-07-24T04:17:48;15.80;99.90
21861;DHT22;11095;48.066;8.540;2023-07-24T04:20:13;15.90;99.90
21861;DHT22;11095;48.066;8.540;2023-07-24T04:22:39;15.90;99.90
21861;DHT22;11095;48.066;8.540;2023-07-24T04:25:05;16.00;99.90
21861;DHT22;11095;48.066;8.540;2023-07-24T04:27:31;16.20;99.90
21861;DHT22;11095;48.066;8.540;2023-07-24T04:29:56;16.50;99.90
21861;DHT22;11095;48.066;8.540;2023-07-24T04:32:22;16.80;99.90
21861;DHT22;11095;48.066;8.540;2023-07-24T04:34:47;17.00;99.90
21861;DHT22;11095;48.066;8.540;2023-07-24T04:37:13;17.00;99.90
21861;DHT22;11095;48.066;8.540;2023-07-24T04:39:39;17.00;99.90
21861;DHT22;11095;48.066;8.540;2023-07-24T04:42:04;16.90;99.90
21861;DHT22;11095;48.066;8.540;2023-07-24T04:44:30;16.80;99.90
21861;DHT22;11095;48.066;8.540;2023-07-24T04:46:57;16.70;99.90
21861;DHT22;11095;48.066;8.540;2023-07-24T04:49:23;16.60;99.90
21861;DHT22;11095;48.066;8.540;2023-07-24T04:51:50;16.50;99.90
21861;DHT22;11095;48.066;8.540;2023-07-24T04:54:16;16.50;99.90
21861;DHT22;11095;48.066;8.540;2023-07-24T04:56:41;16.50;99.90
21861;DHT22;11095;48.066;8.540;2023-07-24T04:59:07;16.40;99.90
21861;DHT22;11095;48.066;8.540;2023-07-24T05:01:32;16.40;99.90
21861;DHT22;11095;48.066;8.540;2023-07-24T05:03:58;16.40;99.90
21861;DHT22;11095;48.066;8.540;2023-07-24T05:06:24;16.40;99.90
21861;DHT22;11095;48.066;8.540;2023-07-24T05:08:49;16.30;99.90
21861;DHT22;11095;48.066;8.540;2023-07-24T05:11:15;16.30;99.90
21861;DHT22;11095;48.066;8.540;2023-07-24T05:13:40;16.30;99.90
21861;DHT22;11095;48.066;8.540;2023-07-24T05:16:06;16.30;99.90
21861;DHT22;11095;48.066;8.540;2023-07-24T05:18:31;16.30;99.90
21861;DHT22;11095;48.066;8.540;2023-07-24T05:20:57;16.30;99.90
21861;DHT22;11095;48.066;8.540;2023-07-24T05:23:23;16.30;99.90
21861;DHT22;11095;48.066;8.540;2023-07-24T05:25:56;16.30;99.90
21861;DHT22;11095;48.066;8.540;2023-07-24T05:28:23;16.40;99.90
21861;DHT22;11095;48.066;8.540;2023-07-24T05:30:48;16.40;99.90
21861;DHT22;11095;48.066;8.540;2023-07-24T05:33:14;16.50;99.90
21861;DHT22;11095;48.066;8.540;2023-07-24T05:35:39;16.70;99.90
21861;DHT22;11095;48.066;8.540;2023-07-24T05:38:05;16.80;99.90
21861;DHT22;11095;48.066;8.540;2023-07-24T05:40:31;16.90;99.90
21861;DHT22;11095;48.066;8.540;2023-07-24T05:42:56;17.10;99.90
21861;DHT22;11095;48.066;8.540;2023-07-24T05:45:22;17.30;99.90
21861;DHT22;11095;48.066;8.540;2023-07-24T05:47:47;17.40;99.90
21861;DHT22;11095;48.066;8.540;2023-07-24T05:50:13;17.50;99.90
21861;DHT22;11095;48.066;8.540;2023-07-24T05:52:39;17.70;99.90
21861;DHT22;11095;48.066;8.540;2023-07-24T05:55:05;17.70;99.90
21861;DHT22;11095;48.066;8.540;2023-07-24T05:57:31;17.80;99.90
21861;DHT22;11095;48.066;8.540;2023-07-24T05:59:56;17.80;99.90
21861;DHT22;11095;48.066;8.540;2023-07-24T06:02:22;17.90;99.90
21861;DHT22;11095;48.066;8.540;2023-07-24T06:04:48;17.80;99.90
21861;DHT22;11095;48.066;8.540;2023-07-24T06:07:13;17.80;99.90
21861;DHT22;11095;48.066;8.540;2023-07-24T06:09:39;17.90;99.90
21861;DHT22;11095;48.066;8.540;2023-07-24T06:12:04;17.90;99.90
21861;DHT22;11095;48.066;8.540;2023-07-24T06:14:30;17.90;99.90
21861;DHT22;11095;48.066;8.540;2023-07-24T06:16:56;18.00;99.90
21861;DHT22;11095;48.066;8.540;2023-07-24T06:19:21;18.00;99.90
21861;DHT22;11095;48.066;8.540;2023-07-24T06:21:47;18.10;99.90
21861;DHT22;11095;48.066;8.540;2023-07-24T06:24:12;18.30;99.90
21861;DHT22;11095;48.066;8.540;2023-07-24T06:26:39;18.40;99.90
21861;DHT22;11095;48.066;8.540;2023-07-24T06:29:05;18.50;99.90
21861;DHT22;11095;48.066;8.540;2023-07-24T06:31:30;18.70;99.90
21861;DHT22;11095;48.066;8.540;2023-07-24T06:33:56;18.80;99.90
21861;DHT22;11095;48.066;8.540;2023-07-24T06:36:21;18.90;99.90
21861;DHT22;11095;48.066;8.540;2023-07-24T06:38:47;19.10;99.90
21861;DHT22;11095;48.066;8.540;2023-07-24T06:41:16;19.40;99.90
21861;DHT22;11095;48.066;8.540;2023-07-24T06:43:42;19.80;99.90
21861;DHT22;11095;48.066;8.540;2023-07-24T06:46:08;20.60;99.90
21861;DHT22;11095;48.066;8.540;2023-07-24T06:48:33;21.60;99.90
21861;DHT22;11095;48.066;8.540;2023-07-24T06:50:59;22.10;99.90
21861;DHT22;11095;48.066;8.540;2023-07-24T06:53:24;22.40;99.90
21861;DHT22;11095;48.066;8.540;2023-07-24T06:55:50;22.80;99.90
21861;DHT22;11095;48.066;8.540;2023-07-24T06:58:16;23.20;99.90
21861;DHT22;11095;48.066;8.540;2023-07-24T07:00:41;23.50;99.90
21861;DHT22;11095;48.066;8.540;2023-07-24T07:03:07;23.50;99.90
21861;DHT22;11095;48.066;8.540;2023-07-24T07:05:32;23.40;99.90
21861;DHT22;11095;48.066;8.540;2023-07-24T07:07:58;23.20;99.90
21861;DHT22;11095;48.066;8.540;2023-07-24T07:10:23;22.80;99.90
21861;DHT22;11095;48.066;8.540;2023-07-24T07:12:49;22.50;99.90
21861;DHT22;11095;48.066;8.540;2023-07-24T07:15:15;22.10;99.90
21861;DHT22;11095;48.066;8.540;2023-07-24T07:17:41;21.70;99.90
21861;DHT22;11095;48.066;8.540;2023-07-24T07:20:07;21.30;99.90
21861;DHT22;11095;48.066;8.540;2023-07-24T07:22:33;21.00;99.90
21861;DHT22;11095;48.066;8.540;2023-07-24T07:24:58;20.80;99.90
21861;DHT22;11095;48.066;8.540;2023-07-24T07:27:24;20.60;99.90
21861;DHT22;11095;48.066;8.540;2023-07-24T07:29:49;20.80;99.90
21861;DHT22;11095;48.066;8.540;2023-07-24T07:32:15;21.20;99.90
21861;DHT22;11095;48.066;8.540;2023-07-24T07:34:40;21.30;99.90
21861;DHT22;11095;48.066;8.540;2023-07-24T07:37:06;21.30;99.90
21861;DHT22;11095;48.066;8.540;2023-07-24T07:39:32;21.10;99.90
21861;DHT22;11095;48.066;8.540;2023-07-24T07:41:58;21.00;99.90
21861;DHT22;11095;48.066;8.540;2023-07-24T07:44:24;20.80;99.90
21861;DHT22;11095;48.066;8.540;2023-07-24T07:46:49;20.70;99.90
21861;DHT22;11095;48.066;8.540;2023-07-24T07:49:15;20.60;99.90
21861;DHT22;11095;48.066;8.540;2023-07-24T07:51:40;20.50;99.90
21861;DHT22;11095;48.066;8.540;2023-07-24T07:54:06;20.40;99.90
21861;DHT22;11095;48.066;8.540;2023-07-24T07:56:32;20.40;99.90
21861;DHT22;11095;48.066;8.540;2023-07-24T07:58:57;20.30;99.90
21861;DHT22;11095;48.066;8.540;2023-07-24T08:01:23;20.30;99.90
21861;DHT22;11095;48.066;8.540;2023-07-24T08:03:48;20.30;99.90
21861;DHT22;11095;48.066;8.540;2023-07-24T08:06:14;20.30;99.90
21861;DHT22;11095;48.066;8.540;2023-07-24T08:08:39;20.20;99.90
21861;DHT22;11095;48.066;8.540;2023-07-24T08:11:06;20.20;99.90
21861;DHT22;11095;48.066;8.540;2023-07-24T08:13:32;20.20;99.90
21861;DHT22;11095;48.066;8.540;2023-07-24T08:15:58;20.20;99.90
21861;DHT22;11095;48.066;8.540;2023-07-24T08:18:25;20.30;99.90
21861;DHT22;11095;48.066;8.540;2023-07-24T08:20:51;20.30;99.90
21861;DHT22;11095;48.066;8.540;2023-07-24T08:23:16;20.30;99.90
21861;DHT22;11095;48.066;8.540;2023-07-24T08:25:52;20.30;99.90
21861;DHT22;11095;48.066;8.540;2023-07-24T08:28:18;20.30;99.90
21861;DHT22;11095;48.066;8.540;2023-07-24T08:30:44;20.30;99.90
21861;DHT22;11095;48.066;8.540;2023-07-24T08:33:09;20.30;99.90
21861;DHT22;11095;48.066;8.540;2023-07-24T08:35:35;20.30;99.90
21861;DHT22;11095;48.066;8.540;2023-07-24T08:38:01;20.30;99.90
21861;DHT22;11095;48.066;8.540;2023-07-24T08:40:26;20.30;99.90
21861;DHT22;11095;48.066;8.540;2023-07-24T08:42:52;20.10;99.90
21861;DHT22;11095;48.066;8.540;2023-07-24T08:45:20;20.10;99.90
21861;DHT22;11095;48.066;8.540;2023-07-24T08:47:46;19.90;99.90
21861;DHT22;11095;48.066;8.540;2023-07-24T08:50:12;19.80;99.90
21861;DHT22;11095;48.066;8.540;2023-07-24T08:52:39;19.60;99.90
21861;DHT22;11095;48.066;8.540;2023-07-24T08:55:05;19.20;99.90
21861;DHT22;11095;48.066;8.540;2023-07-24T08:57:31;19.10;99.90
21861;DHT22;11095;48.066;8.540;2023-07-24T08:59:57;19.00;99.90
21861;DHT22;11095;48.066;8.540;2023-07-24T09:02:24;18.90;99.90
21861;DHT22;11095;48.066;8.540;2023-07-24T09:04:49;18.90;99.90
21861;DHT22;11095;48.066;8.540;2023-07-24T09:07:15;18.90;99.90
21861;DHT22;11095;48.066;8.540;2023-07-24T09:09:40;19.20;99.90
21861;DHT22;11095;48.066;8.540;2023-07-24T09:12:06;19.70;99.90
21861;DHT22;11095;48.066;8.540;2023-07-24T09:14:32;20.20;99.90
21861;DHT22;11095;48.066;8.540;2023-07-24T09:17:10;20.60;99.90
21861;DHT22;11095;48.066;8.540;2023-07-24T09:19:37;20.70;99.90
21861;DHT22;11095;48.066;8.540;2023-07-24T09:22:16;20.90;99.90
21861;DHT22;11095;48.066;8.540;2023-07-24T09:24:51;21.20;99.90
21861;DHT22;11095;48.066;8.540;2023-07-24T09:27:17;21.50;99.90
21861;DHT22;11095;48.066;8.540;2023-07-24T09:29:43;21.80;99.90
21861;DHT22;11095;48.066;8.540;2023-07-24T09:32:22;21.90;99.90
21861;DHT22;11095;48.066;8.540;2023-07-24T09:34:49;21.90;99.90
21861;DHT22;11095;48.066;8.540;2023-07-24T09:37:34;21.80;99.90
21861;DHT22;11095;48.066;8.540;2023-07-24T09:39:59;21.90;99.90
21861;DHT22;11095;48.066;8.540;2023-07-24T09:42:32;22.20;99.90
21861;DHT22;11095;48.066;8.540;2023-07-24T09:44:59;22.70;99.90
21861;DHT22;11095;48.066;8.540;2023-07-24T09:47:24;23.10;99.90
21861;DHT22;11095;48.066;8.540;2023-07-24T09:49:51;23.20;99.90
21861;DHT22;11095;48.066;8.540;2023-07-24T09:52:19;23.20;99.90
21861;DHT22;11095;48.066;8.540;2023-07-24T09:54:50;23.00;99.90
21861;DHT22;11095;48.066;8.540;2023-07-24T09:57:19;22.60;99.90
21861;DHT22;11095;48.066;8.540;2023-07-24T09:59:46;22.10;99.90
21861;DHT22;11095;48.066;8.540;2023-07-24T10:02:13;21.20;99.90
21861;DHT22;11095;48.066;8.540;2023-07-24T10:04:40;20.20;99.90
21861;DHT22;11095;48.066;8.540;2023-07-24T10:07:06;19.30;99.90
21861;DHT22;11095;48.066;8.540;2023-07-24T10:09:33;18.70;99.90
21861;DHT22;11095;48.066;8.540;2023-07-24T10:11:59;18.40;99.90
21861;DHT22;11095;48.066;8.540;2023-07-24T10:14:26;18.20;99.90
21861;DHT22;11095;48.066;8.540;2023-07-24T10:16:52;18.00;99.90
21861;DHT22;11095;48.066;8.540;2023-07-24T10:19:21;17.90;99.90
21861;DHT22;11095;48.066;8.540;2023-07-24T10:21:48;17.80;99.90
21861;DHT22;11095;48.066;8.540;2023-07-24T10:24:15;17.70;99.90
21861;DHT22;11095;48.066;8.540;2023-07-24T10:26:41;17.70;99.90
21861;DHT22;11095;48.066;8.540;2023-07-24T10:29:06;17.50;99.90
21861;DHT22;11095;48.066;8.540;2023-07-24T10:31:32;17.40;99.90
21861;DHT22;11095;48.066;8.540;2023-07-24T10:34:05;17.20;99.90
21861;DHT22;11095;48.066;8.540;2023-07-24T10:36:35;17.10;99.90
21861;DHT22;11095;48.066;8.540;2023-07-24T10:39:01;17.00;99.90
21861;DHT22;11095;48.066;8.540;2023-07-24T10:41:37;16.90;99.90
21861;DHT22;11095;48.066;8.540;2023-07-24T10:44:04;16.90;99.90
21861;DHT22;11095;48.066;8.540;2023-07-24T10:46:40;16.80;99.90
21861;DHT22;11095;48.066;8.540;2023-07-24T10:49:07;16.80;99.90
21861;DHT22;11095;48.066;8.540;2023-07-24T10:51:33;16.70;99.90
21861;DHT22;11095;48.066;8.540;2023-07-24T10:54:01;16.70;99.90
21861;DHT22;11095;48.066;8.540;2023-07-24T10:56:27;16.70;99.90
21861;DHT22;11095;48.066;8.540;2023-07-24T10:58:53;16.80;99.90
21861;DHT22;11095;48.066;8.540;2023-07-24T11:01:18;16.90;99.90
21861;DHT22;11095;48.066;8.540;2023-07-24T11:03:45;17.10;99.90
21861;DHT22;11095;48.066;8.540;2023-07-24T11:06:15;17.20;99.90
21861;DHT22;11095;48.066;8.540;2023-07-24T11:08:41;17.30;99.90
21861;DHT22;11095;48.066;8.540;2023-07-24T11:11:07;17.50;99.90
21861;DHT22;11095;48.066;8.540;2023-07-24T11:13:33;17.70;99.90
21861;DHT22;11095;48.066;8.540;2023-07-24T11:16:05;17.80;99.90
21861;DHT22;11095;48.066;8.540;2023-07-24T11:18:30;18.10;99.90
21861;DHT22;11095;48.066;8.540;2023-07-24T11:20:57;18.30;99.90
21861;DHT22;11095;48.066;8.540;2023-07-24T11:23:23;18.50;99.90
21861;DHT22;11095;48.066;8.540;2023-07-24T11:25:53;18.70;99.90
21861;DHT22;11095;48.066;8.540;2023-07-24T11:28:18;19.00;99.90
21861;DHT22;11095;48.066;8.540;2023-07-24T11:30:44;19.30;99.90
21861;DHT22;11095;48.066;8.540;2023-07-24T11:33:12;19.70;99.90
21861;DHT22;11095;48.066;8.540;2023-07-24T11:35:39;20.10;99.90
21861;DHT22;11095;48.066;8.540;2023-07-24T11:38:05;20.50;99.90
21861;DHT22;11095;48.066;8.540;2023-07-24T11:40:36;20.70;99.90
21861;DHT22;11095;48.066;8.540;2023-07-24T11:43:03;20.70;99.90
21861;DHT22;11095;48.066;8.540;2023-07-24T11:45:30;20.70;99.90
21861;DHT22;11095;48.066;8.540;2023-07-24T11:47:56;20.60;99.90
21861;DHT22;11095;48.066;8.540;2023-07-24T11:50:22;20.30;99.90
21861;DHT22;11095;48.066;8.540;2023-07-24T11:52:50;20.20;99.90
21861;DHT22;11095;48.066;8.540;2023-07-24T11:55:18;20.10;99.90
21861;DHT22;11095;48.066;8.540;2023-07-24T11:57:54;20.00;99.90
21861;DHT22;11095;48.066;8.540;2023-07-24T12:00:21;20.00;99.90
21861;DHT22;11095;48.066;8.540;2023-07-24T12:02:48;20.10;99.90
21861;DHT22;11095;48.066;8.540;2023-07-24T12:05:14;20.30;99.90
21861;DHT22;11095;48.066;8.540;2023-07-24T12:07:42;20.50;99.90
21861;DHT22;11095;48.066;8.540;2023-07-24T12:10:09;20.30;99.90
21861;DHT22;11095;48.066;8.540;2023-07-24T12:12:46;20.20;99.90
21861;DHT22;11095;48.066;8.540;2023-07-24T12:15:12;20.10;99.90
21861;DHT22;11095;48.066;8.540;2023-07-24T12:17:39;20.20;99.90
21861;DHT22;11095;48.066;8.540;2023-07-24T12:20:05;20.20;99.90
21861;DHT22;11095;48.066;8.540;2023-07-24T12:22:34;20.10;99.90
21861;DHT22;11095;48.066;8.540;2023-07-24T12:25:00;20.00;99.90
21861;DHT22;11095;48.066;8.540;2023-07-24T12:27:26;19.90;99.90
21861;DHT22;11095;48.066;8.540;2023-07-24T12:29:52;20.00;99.90
21861;DHT22;11095;48.066;8.540;2023-07-24T12:32:17;20.20;99.90
21861;DHT22;11095;48.066;8.540;2023-07-24T12:34:46;20.20;99.90
21861;DHT22;11095;48.066;8.540;2023-07-24T12:37:12;20.40;99.90
21861;DHT22;11095;48.066;8.540;2023-07-24T12:39:37;20.50;99.90
21861;DHT22;11095;48.066;8.540;2023-07-24T12:42:04;20.80;99.90
21861;DHT22;11095;48.066;8.540;2023-07-24T12:44:29;21.00;99.90
21861;DHT22;11095;48.066;8.540;2023-07-24T12:46:55;21.20;99.90
21861;DHT22;11095;48.066;8.540;2023-07-24T12:49:20;21.50;99.90
21861;DHT22;11095;48.066;8.540;2023-07-24T12:51:46;21.80;99.90
21861;DHT22;11095;48.066;8.540;2023-07-24T12:54:11;21.90;99.90
21861;DHT22;11095;48.066;8.540;2023-07-24T12:56:37;21.90;99.90
21861;DHT22;11095;48.066;8.540;2023-07-24T12:59:03;21.90;99.90
21861;DHT22;11095;48.066;8.540;2023-07-24T13:01:29;21.70;99.90
21861;DHT22;11095;48.066;8.540;2023-07-24T13:03:54;21.40;99.90
21861;DHT22;11095;48.066;8.540;2023-07-24T13:06:21;21.00;99.90
21861;DHT22;11095;48.066;8.540;2023-07-24T13:08:46;20.60;99.90
21861;DHT22;11095;48.066;8.540;2023-07-24T13:11:12;20.30;99.90
21861;DHT22;11095;48.066;8.540;2023-07-24T13:13:38;20.00;99.90
21861;DHT22;11095;48.066;8.540;2023-07-24T13:16:03;19.60;99.90
21861;DHT22;11095;48.066;8.540;2023-07-24T13:18:29;19.40;99.90
21861;DHT22;11095;48.066;8.540;2023-07-24T13:20:56;19.20;99.90
21861;DHT22;11095;48.066;8.540;2023-07-24T13:23:21;19.10;99.90
21861;DHT22;11095;48.066;8.540;2023-07-24T13:25:47;18.90;99.90
21861;DHT22;11095;48.066;8.540;2023-07-24T13:28:13;18.90;99.90
21861;DHT22;11095;48.066;8.540;2023-07-24T13:30:38;18.80;99.90
21861;DHT22;11095;48.066;8.540;2023-07-24T13:33:04;18.70;99.90
21861;DHT22;11095;48.066;8.540;2023-07-24T13:35:29;18.70;99.90
21861;DHT22;11095;48.066;8.540;2023-07-24T13:37:55;18.60;99.90
21861;DHT22;11095;48.066;8.540;2023-07-24T13:40:20;18.70;99.90
21861;DHT22;11095;48.066;8.540;2023-07-24T13:42:46;18.70;99.90
21861;DHT22;11095;48.066;8.540;2023-07-24T13:45:12;18.60;99.90
21861;DHT22;11095;48.066;8.540;2023-07-24T13:47:37;18.60;99.90
21861;DHT22;11095;48.066;8.540;2023-07-24T13:50:03;18.50;99.90
21861;DHT22;11095;48.066;8.540;2023-07-24T13:52:29;18.40;99.90
21861;DHT22;11095;48.066;8.540;2023-07-24T13:54:55;18.20;99.90
21861;DHT22;11095;48.066;8.540;2023-07-24T13:57:21;18.20;99.90
21861;DHT22;11095;48.066;8.540;2023-07-24T13:59:47;18.20;99.90
21861;DHT22;11095;48.066;8.540;2023-07-24T14:02:12;18.20;99.90
21861;DHT22;11095;48.066;8.540;2023-07-24T14:04:38;18.20;99.90
21861;DHT22;11095;48.066;8.540;2023-07-24T14:07:04;18.30;99.90
21861;DHT22;11095;48.066;8.540;2023-07-24T14:09:29;18.30;99.90
21861;DHT22;11095;48.066;8.540;2023-07-24T14:11:56;18.40;99.90
21861;DHT22;11095;48.066;8.540;2023-07-24T14:14:22;18.30;99.90
21861;DHT22;11095;48.066;8.540;2023-07-24T14:16:49;18.30;99.90
21861;DHT22;11095;48.066;8.540;2023-07-24T14:19:14;18.30;99.90
21861;DHT22;11095;48.066;8.540;2023-07-24T14:21:40;18.30;99.90
21861;DHT22;11095;48.066;8.540;2023-07-24T14:24:06;18.40;99.90
21861;DHT22;11095;48.066;8.540;2023-07-24T14:26:31;18.50;99.90
21861;DHT22;11095;48.066;8.540;2023-07-24T14:28:57;18.50;99.90
21861;DHT22;11095;48.066;8.540;2023-07-24T14:31:23;18.60;99.90
21861;DHT22;11095;48.066;8.540;2023-07-24T14:33:49;18.70;99.90
21861;DHT22;11095;48.066;8.540;2023-07-24T14:36:15;19.00;99.90
21861;DHT22;11095;48.066;8.540;2023-07-24T14:38:40;19.10;99.90
21861;DHT22;11095;48.066;8.540;2023-07-24T14:41:06;19.30;99.90
21861;DHT22;11095;48.066;8.540;2023-07-24T14:43:31;19.30;99.90
21861;DHT22;11095;48.066;8.540;2023-07-24T14:45:57;19.20;99.90
21861;DHT22;11095;48.066;8.540;2023-07-24T14:48:22;19.30;99.90
21861;DHT22;11095;48.066;8.540;2023-07-24T14:50:48;19.30;99.90
21861;DHT22;11095;48.066;8.540;2023-07-24T14:53:14;19.30;99.90
21861;DHT22;11095;48.066;8.540;2023-07-24T14:55:39;19.40;99.90
21861;DHT22;11095;48.066;8.540;2023-07-24T14:58:05;19.50;99.90
21861;DHT22;11095;48.066;8.540;2023-07-24T15:00:32;19.80;99.90
21861;DHT22;11095;48.066;8.540;2023-07-24T15:02:58;20.30;99.90
21861;DHT22;11095;48.066;8.540;2023-07-24T15:05:23;20.80;99.90
21861;DHT22;11095;48.066;8.540;2023-07-24T15:07:49;21.30;99.90
21861;DHT22;11095;48.066;8.540;2023-07-24T15:10:15;21.60;99.90
21861;DHT22;11095;48.066;8.540;2023-07-24T15:12:41;21.70;99.90
21861;DHT22;11095;48.066;8.540;2023-07-24T15:15:06;21.90;99.90
21861;DHT22;11095;48.066;8.540;2023-07-24T15:17:32;22.00;99.90
21861;DHT22;11095;48.066;8.540;2023-07-24T15:19:58;22.00;99.90
21861;DHT22;11095;48.066;8.540;2023-07-24T15:22:24;22.00;99.90
21861;DHT22;11095;48.066;8.540;2023-07-24T15:24:49;21.90;99.90